Startpagina
METAR-TAF:

METAR-TAF

Vliegvelden :

McCall Municipal Airport

McCall, Idaho, Verenigde Staten

breedte: 44-53-00N, lengte: 116-05-58W, hoogte: 1530 m

Actueel weer

Dit bericht is 37 minuten geleden gemaakt, om 19:51 UTC
Weinig wind
Temperatuur 3°C
Vochtigheid 52%
Druk 1024 hPa
Zicht: 16.1 km
Onbewolkt

METAR: KMYL 191951Z AUTO 00000KT 10SM CLR 03/M06 A3025 RMK AO2 SLP273 T00331061

Tijdstip: 13:28 (20:28 UTC)

Verwachting

Dit bericht is 3 uur en het 8 minuten geleden gemaakt, om 17:20 UTC
Verwachting geldig van 19 om 18 UTC tot 20 om 18 UTC
Wind 6 kt uit variabele richting
Zicht: 10 km
Onbewolkt

TAF: KMYL 191720Z 1918/2018 VRB06KT P6SM SKC

Waarnemingen en weersverwachtingen van meer dan 4000 vliegvelden (METAR en TAF).

De beschikbare stations zijn de gele en rode punten op de kaart.

Ga met uw muis naar het station om de naam te zien.

Klik dan om waarnemingen en weersverwachtingen te zien.

kaart wijzigen: klik op de groene knoppen met een zwart kruis om in te zoomen, op de groene knop met een streepje om uit te zoomen of op de groene pijlen voor aangrenzende kaarten.


METAR-TAF: